Time;durP1;ratioP1;P1;durP2;ratioP2;P2;SDS_P1;SDS_P2;PMS_P1;PMS_P2;Temp;Humidity;BMP_temperature;BMP_pressure;BME280_temperature;BME280_humidity;BME280_pressure;Samples;Min_cycle;Max_cycle;Signal;HPM_P1;HPM_P2
2021/11/29 00:00:03;;;;;;;184.15;37.17;;;8.50;99.90;;;;;;5074906;28;20033;-74
2021/11/29 00:02:29;;;;;;;218.10;45.88;;;8.50;99.90;;;;;;5074802;28;20529;-74
2021/11/29 00:04:55;;;;;;;283.35;89.60;;;8.50;99.90;;;;;;5056662;28;20036;-74
2021/11/29 00:07:21;;;;;;;282.50;91.57;;;8.50;99.90;;;;;;5074827;28;20021;-74
2021/11/29 00:09:46;;;;;;;188.30;70.00;;;8.50;99.90;;;;;;5074849;28;20463;-73
2021/11/29 00:12:12;;;;;;;206.18;65.03;;;8.50;99.90;;;;;;5074820;28;20025;-73
2021/11/29 00:14:38;;;;;;;220.32;93.07;;;8.50;99.90;;;;;;5074765;28;20055;-73
2021/11/29 00:17:04;;;;;;;226.30;52.63;;;8.50;99.90;;;;;;5057038;28;20074;-73
2021/11/29 00:19:30;;;;;;;239.98;42.35;;;8.50;99.90;;;;;;5074212;28;20501;-73
2021/11/29 00:21:56;;;;;;;179.40;34.90;;;8.50;99.90;;;;;;5074575;28;20035;-73
2021/11/29 00:24:22;;;;;;;216.75;36.45;;;8.50;99.90;;;;;;5056784;28;20025;-74
2021/11/29 00:26:47;;;;;;;236.30;35.85;;;8.50;99.90;;;;;;5073760;28;20031;-74
2021/11/29 00:29:14;;;;;;;285.92;35.47;;;8.50;99.90;;;;;;5073353;28;20475;-73
2021/11/29 00:31:40;;;;;;;260.40;39.08;;;8.60;99.90;;;;;;5073345;28;20116;-73
2021/11/29 00:34:05;;;;;;;181.60;31.95;;;8.60;99.90;;;;;;5079207;28;20064;-73
2021/11/29 00:36:31;;;;;;;236.90;34.63;;;8.60;99.90;;;;;;5085563;28;20032;-74
2021/11/29 00:38:57;;;;;;;303.83;39.00;;;8.60;99.90;;;;;;5078274;28;20466;-74
2021/11/29 00:41:23;;;;;;;258.80;40.85;;;8.70;99.90;;;;;;5074255;28;20093;-74
2021/11/29 00:43:48;;;;;;;223.95;49.65;;;8.60;99.90;;;;;;5072996;28;20386;-75
2021/11/29 00:46:14;;;;;;;275.75;44.95;;;8.50;99.90;;;;;;5073192;28;20078;-74
2021/11/29 00:48:40;;;;;;;398.50;53.67;;;8.40;99.90;;;;;;5074160;28;20385;-74
2021/11/29 00:51:06;;;;;;;309.40;44.90;;;8.40;99.90;;;;;;5074100;28;20025;-73
2021/11/29 00:53:31;;;;;;;298.20;49.95;;;8.30;99.90;;;;;;5074297;28;20035;-73
2021/11/29 00:55:57;;;;;;;416.92;67.55;;;8.30;99.90;;;;;;5073885;28;20032;-73
2021/11/29 00:58:23;;;;;;;226.75;51.00;;;8.20;99.90;;;;;;5074242;28;20029;-73
2021/11/29 01:00:49;;;;;;;293.35;78.60;;;8.10;99.90;;;;;;5072747;28;20064;-74
2021/11/29 01:03:14;;;;;;;335.85;102.90;;;8.20;99.90;;;;;;5073956;28;20032;-73
2021/11/29 01:05:40;;;;;;;451.65;140.13;;;8.20;99.90;;;;;;5074081;28;20418;-74
2021/11/29 01:08:06;;;;;;;301.40;76.90;;;8.20;99.90;;;;;;5073710;28;20020;-74
2021/11/29 01:10:32;;;;;;;297.33;54.15;;;8.20;99.90;;;;;;5072575;28;20377;-74
2021/11/29 01:12:58;;;;;;;424.70;62.88;;;8.20;99.90;;;;;;5073741;28;20025;-74
2021/11/29 01:15:29;;;;;;;412.15;54.92;;;8.20;99.90;;;;;;5073878;28;20129;-74
2021/11/29 01:17:55;;;;;;;382.00;51.97;;;8.20;99.90;;;;;;5072481;28;20052;-74
2021/11/29 01:20:21;;;;;;;475.55;60.63;;;8.20;99.90;;;;;;5073816;28;20390;-74
2021/11/29 01:22:47;;;;;;;412.70;58.78;;;8.20;99.90;;;;;;5073827;28;20056;-74
2021/11/29 01:25:13;;;;;;;449.35;67.55;;;8.20;99.90;;;;;;5072503;28;20024;-73
2021/11/29 01:27:39;;;;;;;387.58;55.80;;;8.30;99.90;;;;;;5073888;28;20104;-73
2021/11/29 01:30:06;;;;;;;285.77;42.63;;;8.40;99.90;;;;;;5083224;28;20064;-72
2021/11/29 01:32:33;;;;;;;325.10;50.83;;;8.40;99.90;;;;;;5080638;28;20025;-73
2021/11/29 01:34:59;;;;;;;201.95;39.65;;;8.50;99.90;;;;;;5072556;28;20024;-73
2021/11/29 01:37:24;;;;;;;188.73;34.17;;;8.60;99.90;;;;;;5071518;28;20472;-73
2021/11/29 01:39:50;;;;;;;61.92;26.77;;;8.60;99.90;;;;;;5075104;28;20040;-73
2021/11/29 01:42:16;;;;;;;65.05;29.00;;;8.70;99.90;;;;;;5077104;28;20044;-73
2021/11/29 01:44:42;;;;;;;67.75;27.35;;;8.80;99.90;;;;;;5077747;28;20459;-73
2021/11/29 01:47:08;;;;;;;59.38;25.60;;;8.90;99.90;;;;;;5077588;28;20028;-73
2021/11/29 01:49:33;;;;;;;51.00;23.75;;;9.00;99.90;;;;;;5077786;28;20021;-73
2021/11/29 01:52:00;;;;;;;63.35;29.05;;;9.00;99.90;;;;;;5077375;28;20397;-73
2021/11/29 01:54:26;;;;;;;73.43;38.00;;;9.00;99.90;;;;;;5076165;28;20028;-73
2021/11/29 01:56:52;;;;;;;60.90;30.65;;;9.10;99.90;;;;;;5077425;28;20478;-74
2021/11/29 01:59:18;;;;;;;66.35;34.97;;;9.10;99.90;;;;;;5077430;28;20037;-74
2021/11/29 02:01:44;;;;;;;129.38;67.03;;;9.10;99.90;;;;;;5076148;28;20059;-74
2021/11/29 02:04:12;;;;;;;237.23;123.40;;;9.10;99.90;;;;;;5076961;28;20062;-74
2021/11/29 02:06:40;;;;;;;288.92;148.18;;;9.20;99.90;;;;;;5076371;28;20159;-73
2021/11/29 02:09:07;;;;;;;180.32;100.22;;;9.20;99.90;;;;;;5077581;28;20064;-73
2021/11/29 02:11:33;;;;;;;90.13;52.63;;;9.20;99.90;;;;;;5075899;28;20123;-74
2021/11/29 02:14:00;;;;;;;107.95;65.00;;;9.20;99.90;;;;;;5077018;28;20159;-73
2021/11/29 02:16:28;;;;;;;84.20;51.33;;;9.20;99.90;;;;;;5076972;28;20052;-74
2021/11/29 02:18:54;;;;;;;57.17;32.22;;;9.20;99.90;;;;;;5064737;28;20542;-74
2021/11/29 02:21:22;;;;;;;56.22;31.10;;;9.20;99.90;;;;;;5058799;28;20021;-73
2021/11/29 02:23:55;;;;;;;58.58;30.13;;;9.20;99.90;;;;;;5064970;28;20056;-74
2021/11/29 02:26:25;;;;;;;75.82;34.42;;;9.10;99.90;;;;;;5085629;28;20055;-75
2021/11/29 02:29:06;;;;;;;59.85;29.98;;;9.10;99.90;;;;;;5078904;28;20494;-74
2021/11/29 02:31:35;;;;;;;60.67;30.48;;;9.10;99.90;;;;;;5077365;28;20037;-73
2021/11/29 02:34:08;;;;;;;74.55;36.20;;;9.00;99.90;;;;;;5076771;28;20031;-73
2021/11/29 02:36:33;;;;;;;75.40;36.88;;;9.00;99.90;;;;;;5076500;28;20025;-74
2021/11/29 02:38:59;;;;;;;71.88;33.70;;;9.00;99.90;;;;;;5058578;28;20120;-73
2021/11/29 02:41:25;;;;;;;66.03;33.63;;;8.90;99.90;;;;;;5076473;28;20021;-74
2021/11/29 02:43:50;;;;;;;88.15;40.67;;;8.90;99.90;;;;;;5076812;28;20024;-74
2021/11/29 02:46:16;;;;;;;106.95;52.55;;;8.80;99.90;;;;;;5076514;28;20028;-75
2021/11/29 02:48:44;;;;;;;114.32;56.88;;;8.80;99.90;;;;;;5076447;28;20037;-74
2021/11/29 02:51:20;;;;;;;139.13;75.03;;;8.80;99.90;;;;;;5073959;28;20024;-73
2021/11/29 02:53:47;;;;;;;92.10;47.28;;;8.80;99.90;;;;;;5076412;28;20458;-73
2021/11/29 02:56:12;;;;;;;68.55;37.78;;;8.90;99.90;;;;;;5076319;28;20024;-73
2021/11/29 02:58:41;;;;;;;68.22;37.15;;;8.90;99.90;;;;;;5075988;28;20032;-74
2021/11/29 03:01:08;;;;;;;51.55;28.50;;;8.90;99.90;;;;;;5076130;28;20394;-74
2021/11/29 03:03:33;;;;;;;53.80;28.77;;;9.00;99.90;;;;;;5058229;28;20119;-73
2021/11/29 03:05:59;;;;;;;54.30;26.92;;;9.00;99.90;;;;;;5076144;28;20442;-74
2021/11/29 03:08:25;;;;;;;52.85;29.67;;;9.00;99.90;;;;;;5074815;28;20074;-73
2021/11/29 03:10:51;;;;;;;45.13;26.17;;;9.10;99.90;;;;;;5076088;28;20032;-74
2021/11/29 03:13:16;;;;;;;55.17;27.55;;;9.10;99.90;;;;;;5076390;28;20032;-74
2021/11/29 03:15:48;;;;;;;43.78;26.48;;;9.10;99.90;;;;;;5076200;28;20090;-74
2021/11/29 03:18:13;;;;;;;45.83;25.48;;;9.20;99.90;;;;;;5077356;28;20052;-74
2021/11/29 03:20:39;;;;;;;44.30;24.90;;;9.20;99.90;;;;;;5068389;28;20037;-74
2021/11/29 03:23:05;;;;;;;45.53;24.45;;;9.20;99.90;;;;;;5078703;28;20090;-74
2021/11/29 03:25:31;;;;;;;50.38;28.38;;;9.30;99.90;;;;;;5067160;28;20024;-74
2021/11/29 03:27:56;;;;;;;55.15;34.33;;;9.40;99.90;;;;;;5077650;28;20046;-74
2021/11/29 03:30:22;;;;;;;44.53;27.30;;;9.40;99.90;;;;;;5096072;28;20039;-74
2021/11/29 03:32:48;;;;;;;47.33;29.17;;;9.50;99.90;;;;;;5077780;28;20111;-74
2021/11/29 03:35:14;;;;;;;48.53;29.05;;;9.50;99.90;;;;;;5095724;28;20100;-74
2021/11/29 03:37:40;;;;;;;52.95;33.08;;;9.60;99.90;;;;;;5095738;28;20031;-74
2021/11/29 03:40:06;;;;;;;53.50;31.30;;;9.60;99.90;;;;;;5095631;28;20040;-73
2021/11/29 03:42:33;;;;;;;57.83;33.55;;;9.60;99.90;;;;;;5077403;28;20024;-74
2021/11/29 03:45:01;;;;;;;55.70;34.63;;;9.60;99.90;;;;;;5077413;28;20049;-73
2021/11/29 03:47:27;;;;;;;64.32;40.70;;;9.60;99.90;;;;;;5095488;28;20031;-74
2021/11/29 03:49:53;;;;;;;52.90;34.30;;;9.60;99.90;;;;;;5095930;28;20358;-74
2021/11/29 03:52:19;;;;;;;64.53;38.22;;;9.60;99.90;;;;;;5095349;28;20086;-73
2021/11/29 03:54:44;;;;;;;56.92;39.85;;;9.60;99.90;;;;;;5057752;28;20051;-73
2021/11/29 03:57:11;;;;;;;55.78;36.97;;;9.60;99.90;;;;;;5075178;28;20028;-73
2021/11/29 03:59:37;;;;;;;43.00;30.30;;;9.60;99.90;;;;;;5057313;28;20040;-74
2021/11/29 04:02:03;;;;;;;38.83;26.88;;;9.60;99.90;;;;;;5074725;28;20103;-71
2021/11/29 04:04:29;;;;;;;39.47;27.55;;;9.50;99.90;;;;;;5056868;28;20037;-77
2021/11/29 04:06:55;;;;;;;49.15;32.60;;;9.50;99.90;;;;;;5075005;28;20032;-77
2021/11/29 04:09:20;;;;;;;45.33;31.60;;;9.50;99.90;;;;;;5075093;28;20036;-77
2021/11/29 04:11:46;;;;;;;56.17;36.67;;;9.50;99.90;;;;;;5075192;28;20074;-76
2021/11/29 04:14:12;;;;;;;81.90;56.15;;;9.50;99.90;;;;;;5084194;28;20059;-77
2021/11/29 04:16:37;;;;;;;90.40;58.78;;;9.50;99.90;;;;;;5063449;28;20115;-78
2021/11/29 04:19:03;;;;;;;79.70;51.53;;;9.50;99.90;;;;;;5061132;28;20073;-76
2021/11/29 04:21:29;;;;;;;109.05;74.57;;;9.60;99.90;;;;;;5075022;28;20032;-77
2021/11/29 04:23:55;;;;;;;33.97;25.20;;;9.60;99.90;;;;;;5074668;28;20070;-76
2021/11/29 04:26:21;;;;;;;48.80;36.25;;;9.60;99.90;;;;;;5074628;28;20059;-77
2021/11/29 04:28:49;;;;;;;75.65;52.45;;;9.70;99.90;;;;;;5075180;28;20404;-78
2021/11/29 04:31:15;;;;;;;62.83;45.20;;;9.70;99.90;;;;;;5074558;28;20129;-77
2021/11/29 04:33:41;;;;;;;80.32;57.40;;;9.70;99.90;;;;;;5056609;28;20529;-77
2021/11/29 04:36:07;;;;;;;52.70;37.15;;;9.70;99.90;;;;;;5074286;28;20032;-78
2021/11/29 04:38:33;;;;;;;48.78;35.13;;;9.60;99.90;;;;;;5074484;28;20474;-77
2021/11/29 04:40:59;;;;;;;29.73;22.65;;;9.60;99.90;;;;;;5074362;28;20017;-76
2021/11/29 04:43:25;;;;;;;31.45;22.52;;;9.50;99.90;;;;;;5074321;28;20142;-77
2021/11/29 04:45:51;;;;;;;29.85;21.88;;;9.50;99.90;;;;;;5079207;28;20094;-78
2021/11/29 04:48:16;;;;;;;28.98;20.60;;;9.60;99.90;;;;;;5094703;28;20036;-77
2021/11/29 04:50:42;;;;;;;27.45;20.05;;;9.70;99.90;;;;;;5094618;28;20085;-78
2021/11/29 04:53:08;;;;;;;29.85;22.27;;;9.80;99.90;;;;;;5094584;28;20584;-78
2021/11/29 04:55:34;;;;;;;36.67;26.83;;;9.90;99.90;;;;;;5076245;28;20515;-77
2021/11/29 04:57:59;;;;;;;35.53;28.55;;;10.00;99.90;;;;;;5076111;28;20042;-79
2021/11/29 05:00:25;;;;;;;37.53;29.80;;;10.00;99.90;;;;;;5092896;28;20115;-76
2021/11/29 05:02:51;;;;;;;45.28;34.95;;;10.10;99.90;;;;;;5092820;28;20020;-78
2021/11/29 05:05:17;;;;;;;63.85;44.80;;;10.10;99.90;;;;;;5094036;28;20031;-78
2021/11/29 05:07:43;;;;;;;69.93;48.47;;;10.20;99.90;;;;;;5097954;28;20099;-78
2021/11/29 05:10:09;;;;;;;58.63;38.85;;;10.20;99.90;;;;;;5097759;28;20035;-78
2021/11/29 05:12:36;;;;;;;77.88;47.22;;;10.20;99.90;;;;;;5095740;28;20035;-78
2021/11/29 05:15:03;;;;;;;115.13;63.55;;;10.30;99.90;;;;;;5080912;28;20028;-79
2021/11/29 05:17:29;;;;;;;37.30;26.67;;;10.30;99.90;;;;;;5074105;28;20543;-76
2021/11/29 05:19:55;;;;;;;29.27;21.38;;;10.40;99.90;;;;;;5093018;28;20214;-75
2021/11/29 05:22:21;;;;;;;65.05;36.75;;;10.50;99.90;;;;;;5066917;28;20390;-76
2021/11/29 05:24:48;;;;;;;50.13;27.40;;;10.50;99.90;;;;;;5073188;28;20118;-77
2021/11/29 05:27:13;;;;;;;31.77;21.13;;;10.60;99.90;;;;;;5071458;28;20122;-76
2021/11/29 05:29:40;;;;;;;25.65;18.00;;;10.70;99.90;;;;;;5073718;28;20111;-76
2021/11/29 05:32:06;;;;;;;24.63;18.33;;;10.80;99.90;;;;;;5059392;28;20501;-80
2021/11/29 05:34:32;;;;;;;32.40;20.75;;;10.90;99.90;;;;;;5070911;28;20097;-74
2021/11/29 05:36:58;;;;;;;28.73;19.30;;;11.00;99.90;;;;;;5093992;28;20462;-72
2021/11/29 05:39:23;;;;;;;24.13;17.65;;;11.10;99.90;;;;;;5064674;28;20090;-75
2021/11/29 05:41:51;;;;;;;23.25;17.40;;;11.10;99.90;;;;;;5075997;28;20036;-76
2021/11/29 05:44:18;;;;;;;25.65;16.90;;;11.20;99.90;;;;;;5088684;28;20024;-77
2021/11/29 05:46:45;;;;;;;21.38;15.82;;;11.30;99.90;;;;;;5063175;28;20027;-79
2021/11/29 05:49:11;;;;;;;26.92;19.00;;;11.30;99.90;;;;;;5055303;28;20028;-79
2021/11/29 05:51:37;;;;;;;26.17;17.75;;;11.40;99.90;;;;;;5075361;28;20025;-77
2021/11/29 05:54:03;;;;;;;24.42;17.00;;;11.40;99.90;;;;;;5072716;28;20103;-77
2021/11/29 05:56:31;;;;;;;31.35;20.27;;;11.50;99.90;;;;;;5055509;28;20028;-77
2021/11/29 05:58:57;;;;;;;28.33;21.42;;;11.50;99.90;;;;;;5076484;28;20033;-77
2021/11/29 06:01:23;;;;;;;22.40;17.60;;;11.50;99.90;;;;;;5082390;28;20143;-79
2021/11/29 06:03:50;;;;;;;39.38;26.92;;;11.60;99.90;;;;;;5085011;28;20064;-77
2021/11/29 06:06:16;;;;;;;28.30;21.90;;;11.60;99.90;;;;;;5057817;28;20028;-78
2021/11/29 06:08:42;;;;;;;30.90;23.45;;;11.60;99.90;;;;;;5074065;28;20024;-78
2021/11/29 06:11:08;;;;;;;29.58;19.77;;;11.60;99.90;;;;;;5072826;28;20030;-78
2021/11/29 06:13:33;;;;;;;34.88;25.20;;;11.60;99.90;;;;;;5073999;28;20032;-77
2021/11/29 06:15:59;;;;;;;49.35;35.35;;;11.70;99.90;;;;;;5071721;28;20029;-77
2021/11/29 06:18:25;;;;;;;37.65;30.13;;;11.70;99.90;;;;;;5054913;28;20052;-77
2021/11/29 06:20:51;;;;;;;31.27;22.55;;;11.70;99.90;;;;;;5072993;28;20036;-77
2021/11/29 06:23:17;;;;;;;28.77;19.42;;;11.70;99.90;;;;;;5071602;28;20021;-78
2021/11/29 06:25:43;;;;;;;28.50;18.33;;;11.70;99.90;;;;;;5056011;28;20028;-78
2021/11/29 06:28:09;;;;;;;25.98;18.00;;;11.70;99.90;;;;;;5058883;28;20055;-78
2021/11/29 06:30:35;;;;;;;27.00;20.27;;;11.70;99.90;;;;;;5076563;28;20554;-77
2021/11/29 06:33:02;;;;;;;24.88;18.10;;;11.70;99.90;;;;;;5076557;28;20029;-77
2021/11/29 06:35:27;;;;;;;31.92;21.17;;;11.80;99.90;;;;;;5077050;28;20020;-78
2021/11/29 06:37:59;;;;;;;35.53;24.15;;;11.80;99.90;;;;;;5076723;28;20552;-77
2021/11/29 06:40:25;;;;;;;32.05;22.75;;;11.80;99.90;;;;;;5076564;28;20037;-79
2021/11/29 06:42:51;;;;;;;30.67;22.20;;;11.80;99.90;;;;;;5076704;28;20104;-77
2021/11/29 06:45:17;;;;;;;30.23;21.40;;;11.80;99.90;;;;;;5058515;28;20418;-79
2021/11/29 06:47:43;;;;;;;32.28;22.38;;;11.90;99.90;;;;;;5076756;28;20031;-78
2021/11/29 06:50:12;;;;;;;31.42;23.25;;;11.80;99.90;;;;;;5076428;28;20041;-78
2021/11/29 06:52:38;;;;;;;35.85;24.65;;;11.80;99.90;;;;;;5058402;28;20025;-76
2021/11/29 06:55:05;;;;;;;30.20;21.10;;;11.90;99.90;;;;;;5081513;28;20029;-76
2021/11/29 06:57:30;;;;;;;35.40;22.67;;;11.90;99.90;;;;;;5065413;28;20059;-76
2021/11/29 06:59:57;;;;;;;41.63;26.70;;;11.90;99.90;;;;;;5084001;28;20394;-76
2021/11/29 07:02:27;;;;;;;42.30;27.33;;;12.00;99.90;;;;;;5081555;28;20417;-77
2021/11/29 07:04:54;;;;;;;33.05;22.83;;;12.00;99.90;;;;;;5076252;28;20032;-77
2021/11/29 07:07:20;;;;;;;36.60;25.40;;;12.00;99.90;;;;;;5076210;28;20032;-78
2021/11/29 07:09:46;;;;;;;31.25;23.25;;;12.00;99.90;;;;;;5075973;28;20111;-77
2021/11/29 07:12:14;;;;;;;37.45;25.92;;;12.10;99.90;;;;;;5076021;28;20100;-78
2021/11/29 07:14:40;;;;;;;29.08;20.65;;;12.10;99.90;;;;;;5076311;28;20024;-77
2021/11/29 07:17:06;;;;;;;29.92;21.60;;;12.10;99.90;;;;;;5075492;28;20027;-77
2021/11/29 07:19:32;;;;;;;29.80;23.13;;;12.10;99.90;;;;;;5074259;28;20048;-77
2021/11/29 07:21:57;;;;;;;29.30;22.58;;;12.10;99.90;;;;;;5075785;28;20067;-77
2021/11/29 07:24:23;;;;;;;31.17;22.50;;;12.10;99.90;;;;;;5076341;28;20040;-77
2021/11/29 07:26:49;;;;;;;29.48;21.10;;;12.20;99.90;;;;;;5075442;28;20033;-78
2021/11/29 07:29:15;;;;;;;28.65;21.08;;;12.10;99.90;;;;;;5074457;28;20421;-78
2021/11/29 07:31:42;;;;;;;31.65;22.08;;;12.20;99.90;;;;;;5075934;28;20079;-77
2021/11/29 07:34:08;;;;;;;27.35;21.50;;;12.20;99.90;;;;;;5075537;28;20040;-78
2021/11/29 07:36:35;;;;;;;28.23;20.90;;;12.20;99.90;;;;;;5057548;28;20039;-78
2021/11/29 07:39:01;;;;;;;26.95;19.65;;;12.20;99.90;;;;;;5075180;28;20111;-76
2021/11/29 07:41:26;;;;;;;37.40;25.10;;;12.30;99.90;;;;;;5075079;28;20112;-77
2021/11/29 07:43:52;;;;;;;31.63;22.77;;;12.30;99.90;;;;;;5074196;28;20021;-76
2021/11/29 07:46:18;;;;;;;34.38;25.73;;;12.30;99.90;;;;;;5075549;28;20052;-77
2021/11/29 07:48:44;;;;;;;37.50;27.52;;;12.40;99.90;;;;;;5075431;28;20024;-77
2021/11/29 07:51:10;;;;;;;29.33;22.15;;;12.40;99.90;;;;;;5083170;28;20086;-76
2021/11/29 07:53:36;;;;;;;32.03;22.45;;;12.50;99.90;;;;;;5080852;28;20021;-78
2021/11/29 07:56:02;;;;;;;28.08;20.63;;;12.50;99.90;;;;;;5075848;28;20021;-77
2021/11/29 07:58:28;;;;;;;29.05;21.08;;;12.60;99.90;;;;;;5074972;28;20071;-77
2021/11/29 08:00:54;;;;;;;29.58;21.10;;;12.60;99.90;;;;;;5075130;28;20062;-77
2021/11/29 08:03:20;;;;;;;29.15;21.13;;;12.60;99.90;;;;;;5074912;28;20032;-77
2021/11/29 08:05:47;;;;;;;28.35;19.20;;;12.70;99.90;;;;;;5056751;28;20020;-77
2021/11/29 08:08:13;;;;;;;32.40;23.05;;;12.70;99.90;;;;;;5074926;28;20107;-79
2021/11/29 08:10:40;;;;;;;36.72;24.48;;;12.60;99.90;;;;;;5074845;28;20489;-76
2021/11/29 08:13:08;;;;;;;30.02;22.48;;;12.60;99.90;;;;;;5074853;28;20036;-77
2021/11/29 08:15:36;;;;;;;27.50;21.10;;;12.60;99.90;;;;;;5074864;28;20474;-77
2021/11/29 08:18:03;;;;;;;29.58;21.13;;;12.60;99.90;;;;;;5073507;28;20044;-78
2021/11/29 08:20:29;;;;;;;30.17;21.88;;;12.60;99.90;;;;;;5074685;28;20035;-77
2021/11/29 08:22:55;;;;;;;26.70;20.40;;;12.60;99.90;;;;;;5074910;28;20036;-77
2021/11/29 08:25:22;;;;;;;27.52;18.27;;;12.60;99.90;;;;;;5056577;28;20119;-78
2021/11/29 08:27:48;;;;;;;29.67;22.02;;;12.60;99.90;;;;;;5074667;28;20025;-77
2021/11/29 08:30:17;;;;;;;26.20;18.45;;;12.60;99.90;;;;;;5056445;28;20355;-77
2021/11/29 08:32:43;;;;;;;23.25;15.18;;;12.60;99.90;;;;;;5056711;28;20356;-77
2021/11/29 08:35:12;;;;;;;27.98;19.45;;;12.60;99.90;;;;;;5074159;28;20025;-77
2021/11/29 08:37:39;;;;;;;27.23;19.00;;;12.60;99.90;;;;;;5074489;28;20100;-76
2021/11/29 08:40:06;;;;;;;26.00;19.13;;;12.70;99.90;;;;;;5073179;28;20497;-76
2021/11/29 08:42:32;;;;;;;24.08;18.35;;;12.60;99.90;;;;;;5074356;28;20036;-77
2021/11/29 08:44:58;;;;;;;23.67;15.77;;;12.70;99.90;;;;;;5078438;28;20056;-77
2021/11/29 08:47:27;;;;;;;22.00;16.33;;;12.70;99.90;;;;;;5082087;28;20033;-77
2021/11/29 08:49:54;;;;;;;24.52;17.70;;;12.70;99.90;;;;;;5058934;28;20127;-78
2021/11/29 08:52:20;;;;;;;24.75;16.88;;;12.70;99.90;;;;;;5075491;28;20405;-78
2021/11/29 08:54:46;;;;;;;30.75;20.67;;;12.60;99.90;;;;;;5056568;28;20048;-78
2021/11/29 08:57:12;;;;;;;28.50;17.23;;;12.60;99.90;;;;;;5074527;28;20060;-77
2021/11/29 08:59:42;;;;;;;25.88;17.00;;;12.60;99.90;;;;;;5074406;28;20038;-77
2021/11/29 09:02:10;;;;;;;72.68;38.70;;;12.60;99.90;;;;;;5073253;28;20116;-78
2021/11/29 09:04:36;;;;;;;43.40;28.60;;;12.60;99.90;;;;;;5074131;28;20462;-77
2021/11/29 09:07:02;;;;;;;34.53;22.98;;;12.60;99.90;;;;;;5074888;28;20058;-77
2021/11/29 09:09:31;;;;;;;31.27;18.73;;;12.60;99.90;;;;;;5074508;28;20123;-76
2021/11/29 09:12:00;;;;;;;23.50;16.33;;;12.60;99.90;;;;;;5074148;28;20107;-77
2021/11/29 09:14:27;;;;;;;25.35;16.13;;;12.60;99.90;;;;;;5056142;28;20119;-76
2021/11/29 09:16:52;;;;;;;24.23;17.05;;;12.60;99.90;;;;;;5056394;28;20386;-76
2021/11/29 09:19:18;;;;;;;24.20;16.15;;;12.60;99.90;;;;;;5056279;28;20047;-76
2021/11/29 09:21:44;;;;;;;24.35;17.05;;;12.60;99.90;;;;;;5073962;28;20029;-76
2021/11/29 09:24:10;;;;;;;33.20;18.33;;;12.50;99.90;;;;;;5073927;28;20502;-78
2021/11/29 09:26:36;;;;;;;29.70;19.17;;;12.50;99.90;;;;;;5074476;28;20067;-78
2021/11/29 09:29:01;;;;;;;31.65;20.58;;;12.50;99.90;;;;;;5073631;28;20029;-78
2021/11/29 09:31:27;;;;;;;35.33;22.25;;;12.50;99.90;;;;;;5072659;28;20028;-77
2021/11/29 09:33:53;;;;;;;41.30;24.70;;;12.50;99.90;;;;;;5055611;28;20021;-78
2021/11/29 09:36:19;;;;;;;44.85;26.85;;;12.50;99.90;;;;;;5074466;28;20033;-76
2021/11/29 09:38:45;;;;;;;29.42;19.60;;;12.40;99.90;;;;;;5056666;28;20040;-79
2021/11/29 09:41:11;;;;;;;30.52;17.25;;;12.40;99.90;;;;;;5063861;28;20451;-76
2021/11/29 09:43:39;;;;;;;27.55;17.75;;;12.50;99.90;;;;;;5062095;28;20027;-76
2021/11/29 09:46:09;;;;;;;26.52;16.48;;;12.40;99.90;;;;;;5057389;28;20020;-77
2021/11/29 09:48:35;;;;;;;30.48;17.95;;;12.50;99.90;;;;;;5073898;28;20023;-79
2021/11/29 09:51:01;;;;;;;30.73;16.70;;;12.50;99.90;;;;;;5055795;28;20111;-76
2021/11/29 09:53:30;;;;;;;27.52;16.85;;;12.40;99.90;;;;;;5074100;28;20028;-78
2021/11/29 09:55:57;;;;;;;27.23;16.27;;;12.50;99.90;;;;;;5074081;28;20447;-78
2021/11/29 09:58:25;;;;;;;26.95;15.75;;;12.40;99.90;;;;;;5055795;28;20028;-77
2021/11/29 10:00:58;;;;;;;35.20;21.02;;;12.40;99.90;;;;;;5056983;28;20047;-77
2021/11/29 10:03:24;;;;;;;29.95;21.83;;;12.40;99.90;;;;;;5077990;28;20033;-77
2021/11/29 10:05:54;;;;;;;33.00;23.35;;;12.40;99.90;;;;;;5076102;28;20025;-77
2021/11/29 10:08:24;;;;;;;30.65;18.88;;;12.40;99.90;;;;;;5077684;28;20028;-79
2021/11/29 10:10:56;;;;;;;69.85;41.28;;;12.40;99.90;;;;;;5060012;28;20382;-80
2021/11/29 10:13:25;;;;;;;54.90;35.42;;;12.40;99.90;;;;;;5077631;28;20028;-77
2021/11/29 10:15:51;;;;;;;43.28;27.83;;;12.40;99.90;;;;;;5059553;28;20021;-78
2021/11/29 10:18:26;;;;;;;34.67;22.52;;;12.40;99.90;;;;;;5077335;28;20397;-78
2021/11/29 10:21:00;;;;;;;30.30;18.15;;;12.40;99.90;;;;;;5077165;28;20078;-75
2021/11/29 10:23:34;;;;;;;27.98;16.58;;;12.40;99.90;;;;;;5076046;28;20106;-76
2021/11/29 10:26:09;;;;;;;29.73;18.02;;;12.40;99.90;;;;;;5059317;28;20031;-78
2021/11/29 10:28:41;;;;;;;43.63;32.13;;;12.40;99.90;;;;;;5077212;28;20024;-78
2021/11/29 10:31:19;;;;;;;29.90;20.25;;;12.30;99.90;;;;;;5077372;28;20024;-78
2021/11/29 10:33:46;;;;;;;43.92;24.25;;;12.30;99.90;;;;;;5078256;28;20115;-77
2021/11/29 10:36:14;;;;;;;49.20;28.05;;;12.30;99.90;;;;;;5083992;28;20020;-79
2021/11/29 10:38:42;;;;;;;43.03;24.58;;;12.30;99.90;;;;;;5083182;28;20116;-77
2021/11/29 10:41:11;;;;;;;41.95;28.25;;;12.20;99.90;;;;;;5077709;28;20040;-78
2021/11/29 10:43:38;;;;;;;54.45;33.15;;;12.20;99.90;;;;;;5058633;28;20031;-78
2021/11/29 10:46:32;;;;;;;100.07;58.58;;;12.20;99.90;;;;;;5076593;28;20021;-78
2021/11/29 10:49:03;;;;;;;42.75;26.38;;;12.20;99.90;;;;;;5076650;28;20021;-77
2021/11/29 10:51:29;;;;;;;55.60;34.90;;;12.20;99.90;;;;;;5059060;28;20020;-78
2021/11/29 10:54:14;;;;;;;41.85;30.02;;;12.20;99.90;;;;;;5075283;28;20081;-78
2021/11/29 10:56:43;;;;;;;35.70;24.65;;;12.10;99.90;;;;;;5076663;28;20028;-77
2021/11/29 10:59:13;;;;;;;44.35;31.20;;;12.10;99.90;;;;;;5076587;28;20025;-78
2021/11/29 11:01:40;;;;;;;44.15;27.73;;;12.10;99.90;;;;;;5077030;28;20024;-78
2021/11/29 11:04:09;;;;;;;46.33;30.17;;;12.10;99.90;;;;;;5075954;28;20540;-78
2021/11/29 11:06:45;;;;;;;40.53;26.20;;;12.10;99.90;;;;;;5058667;28;20122;-78
2021/11/29 11:09:18;;;;;;;75.85;47.20;;;12.10;99.90;;;;;;5059054;28;20482;-78
2021/11/29 11:11:58;;;;;;;75.70;50.28;;;12.10;99.90;;;;;;5076084;28;20032;-78
2021/11/29 11:14:29;;;;;;;57.75;38.75;;;12.10;99.90;;;;;;5076795;28;20020;-78
2021/11/29 11:16:58;;;;;;;43.47;29.15;;;12.10;99.90;;;;;;5075398;28;20518;-77
2021/11/29 11:19:37;;;;;;;46.13;32.78;;;12.10;99.90;;;;;;5058138;28;20399;-78
2021/11/29 11:22:19;;;;;;;52.03;35.72;;;12.10;99.90;;;;;;5076709;28;20390;-78
2021/11/29 11:24:48;;;;;;;34.88;23.70;;;12.10;99.90;;;;;;5076822;28;20024;-77
2021/11/29 11:27:14;;;;;;;22.38;16.88;;;12.10;99.90;;;;;;5058614;28;20115;-78
2021/11/29 11:29:39;;;;;;;35.97;23.85;;;12.10;99.90;;;;;;5077663;28;20175;-77
2021/11/29 11:32:30;;;;;;;70.85;41.35;;;12.10;99.90;;;;;;5083424;28;20035;-78
2021/11/29 11:35:03;;;;;;;53.95;31.15;;;12.10;99.90;;;;;;5080006;28;20524;-79
2021/11/29 11:37:35;;;;;;;66.57;40.33;;;12.10;99.90;;;;;;5057660;28;20027;-79
2021/11/29 11:40:02;;;;;;;46.47;29.50;;;12.10;99.90;;;;;;5075445;28;20028;-79
2021/11/29 11:42:28;;;;;;;48.30;30.60;;;12.10;99.90;;;;;;5075317;28;20048;-79
2021/11/29 11:44:55;;;;;;;45.83;31.15;;;12.10;99.90;;;;;;5074076;28;20105;-78
2021/11/29 11:47:21;;;;;;;56.97;38.17;;;12.10;99.90;;;;;;5075220;28;20029;-78
2021/11/29 11:49:49;;;;;;;46.47;35.05;;;12.10;99.90;;;;;;5075238;28;20158;-79
2021/11/29 11:52:20;;;;;;;64.65;39.92;;;12.20;99.90;;;;;;5075632;28;20036;-79
2021/11/29 11:54:47;;;;;;;40.10;26.23;;;12.20;99.90;;;;;;5074873;28;20107;-79
2021/11/29 11:57:18;;;;;;;41.17;26.75;;;12.20;99.90;;;;;;5057092;28;20429;-79
2021/11/29 12:00:14;;;;;;;51.90;32.60;;;12.20;99.90;;;;;;5075006;28;20459;-79
2021/11/29 12:03:05;;;;;;;36.65;23.08;;;12.20;99.90;;;;;;5073896;28;20033;-80
2021/11/29 12:05:51;;;;;;;79.20;49.38;;;12.20;99.90;;;;;;5074944;28;20039;-79
2021/11/29 12:08:31;;;;;;;112.40;71.90;;;12.20;99.90;;;;;;5074654;28;20044;-79
2021/11/29 12:11:00;;;;;;;57.35;41.60;;;12.20;99.90;;;;;;5075275;28;20033;-80
2021/11/29 12:13:26;;;;;;;60.47;39.38;;;12.20;99.90;;;;;;5074680;28;20028;-80
2021/11/29 12:15:53;;;;;;;71.93;52.15;;;12.20;99.90;;;;;;5075053;28;20025;-80
2021/11/29 12:18:45;;;;;;;48.13;36.55;;;12.20;99.90;;;;;;5075041;28;20115;-80
2021/11/29 12:21:20;;;;;;;50.38;37.00;;;12.20;99.90;;;;;;5056876;28;20191;-80
2021/11/29 12:23:51;;;;;;;49.42;33.60;;;12.20;99.90;;;;;;5073897;28;20077;-79
2021/11/29 12:26:18;;;;;;;55.72;34.25;;;12.20;99.90;;;;;;5080665;28;20037;-79
2021/11/29 12:28:45;;;;;;;61.40;40.40;;;12.20;99.90;;;;;;5082082;28;20025;-79